aviador You're here:

KSPW Decoded Metar

SPENCER in IA, USA
Report Time2017-05-23 14:22:00
UTC Time2017-05-23 14:41:49
Flight Rules vfr VFR
Wind340° at 17 kt
W.Decomp.*RWY 36: 15.4 kt HW 7.2 kt LCW
RWY 30: 13.9 kt HW 9.8 kt RCW
W.Rank340° ranks 9
Current wind is above 340° avg. (11.6)
Visibility9999 m
Phenomena:N/A
Clouds:Few 015 Hf
Scattered 030 Hf
Overcast 090 Hf
Expected CloudBase > 1,200 ft AGL from Temp-Dew spread
Ceiling9,000 ft
Temp10°C (ISA -2)
Dew Point07°C (82% RH)
AAT3.2°C
QNH1011 hPa
Density Alt1,247 ft
Elevation1,322 ft
Report Wrong Elevation
Raw Report
KSPW 231422Z AUTO 34017KT 10SM FEW015 SCT030 OVC090 10/07 A2986
RMK AO2 T01000067=

Extra information for KSPW:More info

Metar Taf Metar & Taf Last 4 Metars F.Rules Stats Wind Profile Meteogram Temp Stats Airport Information Weather charts Add Link Nearby VenuesMetar ALERT Operation Metar Decoded Social comments

AIRNAV info for KSPW